Bruce Mines, Canada
Current Conditions -  °F | °C
As of 1:54 AM on Monday 24 Nov 2014 (Local Time) from KDRM Reporting Station
Light Rain Light Rain  
Wind Chill:   Ceiling: 600
Heat Index:   Visibility: 7mi
Dew Point:   Wind: 10mph
Humidity: 100%   Direction: 110°ESE
Pressure: 29.18"   Gusts: 17mph
Location:  46.3°N, 83.79°W
Report Text: KDRM 240654Z AUTO 11009G15KT 7SM -RA BKN006 OVC010 07/07 A2918 RMK AO2 T00700070
Loading
Personal Weather Stations






























Interactive Weather Map New forecast layout! Learn more

10-Day Weather Forecast

Advertisements
Track Severe Weather on mobile